LIL weather

Lille-Lesquin Airport
Lille/Lesquin, Hauts-de-France, France

Public forecast

Using degrees Celsius for public forecast. Weather courtesy of forecast.io.

Current aviation weather report (METAR) for Lille-Lesquin Airport

Retrieved 2019/11/19 22:30 UTC (3 minutes ago):

LFQQ 192230Z AUTO 08004KT 7000 NSC 01/01 Q1018 BECMG 3000 BR

Aviation forecast (TAF) for Lille-Lesquin Airport

Retrieved 2019/11/19 18:21 UTC (4 hours ago):

TAF LFQQ 191700Z 1918/2024 VRB03KT 9999 SCT035 BECMG 1921/1924 3000 BR PROB30 TEMPO 2005/2010 0500 FG VV/// BECMG 2010/2012 14010KT 9999 NSW BECMG 2021/2024 4000 BR